Time,TemperatureF,DewpointF,PressureIn,WindDirection,WindDirectionDegrees,WindSpeedMPH,WindSpeedGustMPH,Humidity,HourlyPrecipIn,Conditions,Clouds,dailyrainin,SoftwareType,DateUTC
2013-02-01 00:13:00,26.8,12.0,29.69,WSW,246,1.0,-999.0,55,-99.99,,,0.00,weatherlink.com 1.10,2013-02-01 05:13:00,
2013-02-01 00:28:00,26.6,11.0,29.70,South,175,1.0,-999.0,53,-99.99,,,0.00,weatherlink.com 1.10,2013-02-01 05:28:00,
2013-02-01 00:43:00,26.7,11.0,29.71,East,94,1.0,-999.0,52,-99.99,,,0.00,weatherlink.com 1.10,2013-02-01 05:43:00,
2013-02-01 00:58:00,26.7,10.0,29.71,ENE,66,3.0,-999.0,50,-99.99,,,0.00,weatherlink.com 1.10,2013-02-01 05:58:00,
2013-02-01 01:13:00,26.6,11.0,29.72,ESE,105,0.0,-999.0,52,-99.99,,,0.00,weatherlink.com 1.10,2013-02-01 06:13:00,
2013-02-01 01:29:00,26.2,12.0,29.73,SE,129,1.0,-999.0,55,-99.99,,,0.00,weatherlink.com 1.10,2013-02-01 06:29:00,
2013-02-01 01:43:00,26.1,12.0,29.73,South,187,0.0,-999.0,55,-99.99,,,0.00,weatherlink.com 1.10,2013-02-01 06:43:00,
2013-02-01 02:13:00,26.2,13.0,29.74,SSE,155,2.0,-999.0,58,-99.99,,,0.00,weatherlink.com 1.10,2013-02-01 07:13:00,
2013-02-01 02:28:00,26.1,13.0,29.73,ESE,106,0.0,-999.0,59,-99.99,,,0.00,weatherlink.com 1.10,2013-02-01 07:28:00,
2013-02-01 02:43:00,25.9,13.0,29.73,East,101,1.0,-999.0,59,-99.99,,,0.00,weatherlink.com 1.10,2013-02-01 07:43:00,
2013-02-01 02:58:00,25.8,14.0,29.74,SE,125,1.0,-999.0,60,-99.99,,,0.00,weatherlink.com 1.10,2013-02-01 07:58:00,
2013-02-01 03:13:00,25.6,13.0,29.74,SSE,149,0.0,-999.0,59,-99.99,,,0.00,weatherlink.com 1.10,2013-02-01 08:13:00,
2013-02-01 03:28:00,25.3,13.0,29.74,SE,130,1.0,-999.0,60,-99.99,,,0.00,weatherlink.com 1.10,2013-02-01 08:28:00,
2013-02-01 03:43:00,25.2,13.0,29.74,East,101,0.0,-999.0,61,-99.99,,,0.00,weatherlink.com 1.10,2013-02-01 08:43:00,
2013-02-01 03:59:00,24.9,14.0,29.73,SW,234,0.0,-999.0,63,-99.99,,,0.00,weatherlink.com 1.10,2013-02-01 08:59:00,
2013-02-01 04:13:00,24.7,14.0,29.72,SSE,167,0.0,-999.0,64,-99.99,,,0.00,weatherlink.com 1.10,2013-02-01 09:13:00,
2013-02-01 04:28:00,24.4,14.0,29.73,SE,140,0.0,-999.0,65,-99.99,,,0.00,weatherlink.com 1.10,2013-02-01 09:28:00,
2013-02-01 04:43:00,24.2,14.0,29.74,South,173,0.0,-999.0,66,-99.99,,,0.00,weatherlink.com 1.10,2013-02-01 09:43:00,
2013-02-01 04:58:00,24.2,14.0,29.74,ESE,103,0.0,-999.0,66,-99.99,,,0.00,weatherlink.com 1.10,2013-02-01 09:58:00,
2013-02-01 05:14:00,24.0,14.0,29.74,East,90,1.0,-999.0,67,-99.99,,,0.00,weatherlink.com 1.10,2013-02-01 10:14:00,
2013-02-01 05:29:00,24.0,14.0,29.76,ENE,68,1.0,-999.0,66,-99.99,,,0.00,weatherlink.com 1.10,2013-02-01 10:29:00,
2013-02-01 05:44:00,24.1,14.0,29.76,SSE,153,0.0,-999.0,66,-99.99,,,0.00,weatherlink.com 1.10,2013-02-01 10:44:00,
2013-02-01 05:59:00,24.3,14.0,29.76,SE,133,1.0,-999.0,66,-99.99,,,0.00,weatherlink.com 1.10,2013-02-01 10:59:00,
2013-02-01 06:13:00,24.3,14.0,29.77,SSE,164,0.0,-999.0,65,-99.99,,,0.00,weatherlink.com 1.10,2013-02-01 11:13:00,
2013-02-01 06:28:00,24.4,14.0,29.78,NE,51,0.0,-999.0,66,-99.99,,,0.00,weatherlink.com 1.10,2013-02-01 11:28:00,
2013-02-01 06:43:00,24.3,15.0,29.78,NE,42,0.0,-999.0,67,-99.99,,,0.00,weatherlink.com 1.10,2013-02-01 11:43:00,
2013-02-01 06:58:00,24.4,15.0,29.80,ENE,67,1.0,-999.0,67,-99.99,,,0.00,weatherlink.com 1.10,2013-02-01 11:58:00,
2013-02-01 07:13:00,24.3,15.0,29.80,WNW,287,0.0,-999.0,67,-99.99,,,0.00,weatherlink.com 1.10,2013-02-01 12:13:00,
2013-02-01 07:28:00,24.2,15.0,29.80,SSE,157,2.0,-999.0,67,-99.99,,,0.00,weatherlink.com 1.10,2013-02-01 12:28:00,
2013-02-01 07:43:00,24.2,14.0,29.82,NNW,346,0.0,-999.0,66,-99.99,,,0.00,weatherlink.com 1.10,2013-02-01 12:43:00,
2013-02-01 07:58:00,24.3,14.0,29.82,South,179,0.0,-999.0,64,-99.99,,,0.00,weatherlink.com 1.10,2013-02-01 12:58:00,
2013-02-01 08:13:00,24.6,14.0,29.82,SSE,157,0.0,-999.0,63,-99.99,,,0.00,weatherlink.com 1.10,2013-02-01 13:13:00,
2013-02-01 08:28:00,24.9,13.0,29.83,South,171,1.0,-999.0,61,-99.99,,,0.00,weatherlink.com 1.10,2013-02-01 13:28:00,
2013-02-01 08:43:00,25.2,13.0,29.82,ENE,64,1.0,-999.0,61,-99.99,,,0.00,weatherlink.com 1.10,2013-02-01 13:43:00,
2013-02-01 08:59:00,25.5,12.0,29.82,South,172,2.0,-999.0,57,-99.99,,,0.00,weatherlink.com 1.10,2013-02-01 13:59:00,
2013-02-01 09:13:00,25.6,12.0,29.82,West,279,1.0,-999.0,56,-99.99,,,0.00,weatherlink.com 1.10,2013-02-01 14:13:00,
2013-02-01 09:29:00,25.8,12.0,29.82,WNW,289,0.0,-999.0,57,-99.99,,,0.00,weatherlink.com 1.10,2013-02-01 14:29:00,
2013-02-01 09:43:00,25.7,13.0,29.83,SSE,163,2.0,-999.0,58,-99.99,,,0.00,weatherlink.com 1.10,2013-02-01 14:43:00,
2013-02-01 09:58:00,25.6,13.0,29.84,NW,304,2.0,-999.0,58,-99.99,,,0.00,weatherlink.com 1.10,2013-02-01 14:58:00,
2013-02-01 10:13:00,26.0,12.0,29.84,East,98,2.0,-999.0,56,-99.99,,,0.00,weatherlink.com 1.10,2013-02-01 15:13:00,
2013-02-01 10:28:00,26.2,11.0,29.84,SSE,152,4.0,-999.0,53,-99.99,,,0.00,weatherlink.com 1.10,2013-02-01 15:28:00,
2013-02-01 10:43:00,26.5,11.0,29.84,SE,138,0.0,-999.0,52,-99.99,,,0.00,weatherlink.com 1.10,2013-02-01 15:43:00,
2013-02-01 10:58:00,26.8,11.0,29.84,SW,225,2.0,-999.0,52,-99.99,,,0.00,weatherlink.com 1.10,2013-02-01 15:58:00,
2013-02-01 11:13:00,26.7,11.0,29.84,West,268,6.0,-999.0,51,-99.99,,,0.00,weatherlink.com 1.10,2013-02-01 16:13:00,
2013-02-01 11:29:00,27.0,11.0,29.84,East,85,1.0,-999.0,51,-99.99,,,0.00,weatherlink.com 1.10,2013-02-01 16:29:00,
2013-02-01 11:43:00,27.8,10.0,29.83,SE,145,1.0,-999.0,48,-99.99,,,0.00,weatherlink.com 1.10,2013-02-01 16:43:00,
2013-02-01 11:58:00,27.5,10.0,29.83,WNW,295,0.0,-999.0,48,-99.99,,,0.00,weatherlink.com 1.10,2013-02-01 16:58:00,
2013-02-01 12:14:00,27.4,9.0,29.82,SSW,204,2.0,-999.0,47,-99.99,,,0.00,weatherlink.com 1.10,2013-02-01 17:14:00,
2013-02-01 12:28:00,27.6,10.0,29.82,West,265,0.0,-999.0,48,-99.99,,,0.00,weatherlink.com 1.10,2013-02-01 17:28:00,
2013-02-01 12:44:00,28.0,10.0,29.81,SSE,163,6.0,-999.0,46,-99.99,,,0.00,weatherlink.com 1.10,2013-02-01 17:44:00,
2013-02-01 12:58:00,27.9,8.0,29.82,North,5,1.0,-999.0,44,-99.99,,,0.00,weatherlink.com 1.10,2013-02-01 17:58:00,
2013-02-01 13:13:00,28.1,10.0,29.83,SSE,167,2.0,-999.0,47,-99.99,,,0.00,weatherlink.com 1.10,2013-02-01 18:13:00,
2013-02-01 13:29:00,27.2,11.0,29.84,SE,134,4.0,-999.0,51,-99.99,,,0.00,weatherlink.com 1.10,2013-02-01 18:29:00,
2013-02-01 13:43:00,28.4,10.0,29.84,SE,131,1.0,-999.0,46,-99.99,,,0.00,weatherlink.com 1.10,2013-02-01 18:43:00,
2013-02-01 13:59:00,28.0,9.0,29.85,ESE,116,5.0,-999.0,45,-99.99,,,0.00,weatherlink.com 1.10,2013-02-01 18:59:00,
2013-02-01 14:14:00,27.4,7.0,29.85,WSW,248,1.0,-999.0,43,-99.99,,,0.00,weatherlink.com 1.10,2013-02-01 19:14:00,
2013-02-01 14:28:00,27.1,11.0,29.86,South,171,0.0,-999.0,50,-99.99,,,0.00,weatherlink.com 1.10,2013-02-01 19:28:00,
2013-02-01 14:43:00,27.2,9.0,29.86,SSW,207,0.0,-999.0,47,-99.99,,,0.00,weatherlink.com 1.10,2013-02-01 19:43:00,
2013-02-01 14:58:00,27.3,8.0,29.88,SSE,147,7.0,-999.0,45,-99.99,,,0.00,weatherlink.com 1.10,2013-02-01 19:58:00,
2013-02-01 15:14:00,27.7,9.0,29.89,WSW,241,0.0,-999.0,45,-99.99,,,0.00,weatherlink.com 1.10,2013-02-01 20:14:00,
2013-02-01 15:28:00,27.7,8.0,29.89,SE,140,1.0,-999.0,44,-99.99,,,0.00,weatherlink.com 1.10,2013-02-01 20:28:00,
2013-02-01 15:43:00,27.3,7.0,29.91,South,189,5.0,-999.0,42,-99.99,,,0.00,weatherlink.com 1.10,2013-02-01 20:43:00,
2013-02-01 15:58:00,26.9,11.0,29.93,SW,236,0.0,-999.0,52,-99.99,,,0.00,weatherlink.com 1.10,2013-02-01 20:58:00,
2013-02-01 16:14:00,26.3,10.0,29.94,SW,221,5.0,-999.0,50,-99.99,,,0.00,weatherlink.com 1.10,2013-02-01 21:14:00,
2013-02-01 16:28:00,25.9,10.0,29.95,SW,215,0.0,-999.0,51,-99.99,,,0.00,weatherlink.com 1.10,2013-02-01 21:28:00,
2013-02-01 16:43:00,25.5,9.0,29.96,ESE,110,3.0,-999.0,50,-99.99,,,0.00,weatherlink.com 1.10,2013-02-01 21:43:00,
2013-02-01 16:59:00,25.4,9.0,29.98,North,5,0.0,-999.0,50,-99.99,,,0.00,weatherlink.com 1.10,2013-02-01 21:59:00,
2013-02-01 17:13:00,24.8,10.0,29.98,SSW,193,0.0,-999.0,53,-99.99,,,0.00,weatherlink.com 1.10,2013-02-01 22:13:00,
2013-02-01 17:28:00,24.5,7.0,30.00,SSE,167,1.0,-999.0,47,-99.99,,,0.00,weatherlink.com 1.10,2013-02-01 22:28:00,
2013-02-01 17:43:00,24.4,6.0,30.01,West,274,0.0,-999.0,45,-99.99,,,0.00,weatherlink.com 1.10,2013-02-01 22:43:00,
2013-02-01 17:58:00,24.3,6.0,30.02,SSW,202,2.0,-999.0,46,-99.99,,,0.00,weatherlink.com 1.10,2013-02-01 22:58:00,
2013-02-01 18:14:00,24.2,6.0,30.04,SW,234,4.0,-999.0,46,-99.99,,,0.00,weatherlink.com 1.10,2013-02-01 23:14:00,
2013-02-01 18:28:00,24.0,6.0,30.05,SE,129,1.0,-999.0,47,-99.99,,,0.00,weatherlink.com 1.10,2013-02-01 23:28:00,
2013-02-01 18:44:00,23.7,6.0,30.06,South,182,0.0,-999.0,46,-99.99,,,0.00,weatherlink.com 1.10,2013-02-01 23:44:00,
2013-02-01 18:59:00,23.5,5.0,30.07,SW,222,0.0,-999.0,46,-99.99,,,0.00,weatherlink.com 1.10,2013-02-01 23:59:00,
2013-02-01 19:14:00,23.1,6.0,30.07,WSW,243,3.0,-999.0,47,-99.99,,,0.00,weatherlink.com 1.10,2013-02-02 00:14:00,
2013-02-01 19:28:00,23.0,5.0,30.08,SSW,193,0.0,-999.0,47,-99.99,,,0.00,weatherlink.com 1.10,2013-02-02 00:28:00,
2013-02-01 19:44:00,22.7,6.0,30.08,WSW,254,0.0,-999.0,48,-99.99,,,0.00,weatherlink.com 1.10,2013-02-02 00:44:00,
2013-02-01 19:58:00,22.5,6.0,30.09,NW,320,0.0,-999.0,50,-99.99,,,0.00,weatherlink.com 1.10,2013-02-02 00:58:00,
2013-02-01 20:13:00,22.3,6.0,30.10,South,173,1.0,-999.0,49,-99.99,,,0.00,weatherlink.com 1.10,2013-02-02 01:13:00,
2013-02-01 20:28:00,22.1,6.0,30.11,ESE,118,0.0,-999.0,50,-99.99,,,0.00,weatherlink.com 1.10,2013-02-02 01:28:00,
2013-02-01 20:43:00,22.1,6.0,30.11,West,260,1.0,-999.0,50,-99.99,,,0.00,weatherlink.com 1.10,2013-02-02 01:43:00,
2013-02-01 20:58:00,21.8,7.0,30.11,South,169,0.0,-999.0,52,-99.99,,,0.00,weatherlink.com 1.10,2013-02-02 01:58:00,
2013-02-01 21:13:00,21.5,8.0,30.12,SE,138,0.0,-999.0,55,-99.99,,,0.00,weatherlink.com 1.10,2013-02-02 02:13:00,
2013-02-01 21:28:00,21.1,8.0,30.12,SE,133,0.0,-999.0,56,-99.99,,,0.00,weatherlink.com 1.10,2013-02-02 02:28:00,
2013-02-01 21:43:00,21.1,8.0,30.13,WSW,245,0.0,-999.0,56,-99.99,,,0.00,weatherlink.com 1.10,2013-02-02 02:43:00,
2013-02-01 21:59:00,21.3,8.0,30.14,SSE,150,0.0,-999.0,56,-99.99,,,0.00,weatherlink.com 1.10,2013-02-02 02:59:00,
2013-02-01 22:13:00,21.4,8.0,30.14,SSE,152,0.0,-999.0,56,-99.99,,,0.00,weatherlink.com 1.10,2013-02-02 03:13:00,
2013-02-01 22:28:00,21.2,8.0,30.15,ESE,119,0.0,-999.0,57,-99.99,,,0.00,weatherlink.com 1.10,2013-02-02 03:28:00,
2013-02-01 22:43:00,21.0,9.0,30.15,SW,221,2.0,-999.0,59,-99.99,,,0.00,weatherlink.com 1.10,2013-02-02 03:43:00,
2013-02-01 22:59:00,20.9,9.0,30.16,SSE,167,0.0,-999.0,59,-99.99,,,0.00,weatherlink.com 1.10,2013-02-02 03:59:00,
2013-02-01 23:13:00,20.8,9.0,30.16,South,191,0.0,-999.0,60,-99.99,,,0.00,weatherlink.com 1.10,2013-02-02 04:13:00,
2013-02-01 23:29:00,20.7,9.0,30.16,ENE,72,1.0,-999.0,60,-99.99,,,0.00,weatherlink.com 1.10,2013-02-02 04:29:00,
2013-02-01 23:44:00,20.6,9.0,30.17,SSW,213,0.0,-999.0,61,-99.99,,,0.00,weatherlink.com 1.10,2013-02-02 04:44:00,
2013-02-01 23:59:00,20.6,9.0,30.17,West,261,1.0,-999.0,61,-99.99,,,0.00,weatherlink.com 1.10,2013-02-02 04:59:00,